Hovedside
METAR-TAF:

METAR-TAF

Lufthavner :

Esenboğa internasjonale lufthavn

Ankara Esenboğa, Tyrkia

breddegrad: 40-07N, lengdegrad: 032-59E, høyde over havet: 953 m

Gjeldene værobservasjon

Denne rapporten ble laget for 44 minutter siden, klokken 12:20 UTC
Vind 9 kt fra Nord, skiftende mellom Nordvest og Nord-nordøst
Temperatur 30°C
Luftfuktighet 13%
Trykk 1012 hPa
Sikt 10 km eller mer
Få skyer i en høyde av 4000 ft

METAR: LTAC 151220Z 36009KT 320V030 9999 FEW040 30/M01 Q1012 NOSIG

Tid: 16:04 (13:04 UTC)

Varsel

Denne rapporten ble laget for 2 timer og 24 minutter siden, klokken 10:40 UTC
Varsel gyldig fra 15. klokken 12 UTC til 16. klokken 12 UTC
Vind 2 kt fra skiftende retning
Sikt 10 km eller mer
Få skyer i en høyde av 4000 ft
Blir
fra 15. klokken 12 UTC til 15. klokken 14 UTC
Sikt 10 km eller mer
ingen skyer under 1500 m og ingen bygeskyer

TAF: LTAC 151040Z 1512/1612 VRB02KT 9999 FEW040 BECMG 1512/1514 CAVOK

Værobservasjoner og værvarsel for over 4000 flyplasser (METAR- og TAF-rapporter).

Tilgjengelige stasjoner er representert av de røde og gule prikkene på kartet.

Hold musepekeren over prikken for å se navnet på stasjonen.

Klikk så for å se værobservasjoner og -varsler.

For å forandre kartet kan du klikke på den grønne knappen med svart kryss for å zoome inn, på den grønne knappen med strek for å zoome ut, eller på de grønne pilene for å se tilstøtende kart.


METAR-TAF: